sensor_id;sensor_type;location;lat;lon;timestamp;P1;durP1;ratioP1;P2;durP2;ratioP2
54539;SDS011;40438;52.992;18.604;2023-07-08T00:01:08;4.65;;;3.45;;
54539;SDS011;40438;52.992;18.604;2023-07-08T00:03:37;5.93;;;3.33;;
54539;SDS011;40438;52.992;18.604;2023-07-08T00:06:04;5.28;;;3.20;;
54539;SDS011;40438;52.992;18.604;2023-07-08T00:08:33;7.75;;;3.67;;
54539;SDS011;40438;52.992;18.604;2023-07-08T00:10:59;6.95;;;3.45;;
54539;SDS011;40438;52.992;18.604;2023-07-08T00:13:24;5.90;;;3.58;;
54539;SDS011;40438;52.992;18.604;2023-07-08T00:15:50;9.77;;;3.25;;
54539;SDS011;40438;52.992;18.604;2023-07-08T00:18:16;9.05;;;3.33;;
54539;SDS011;40438;52.992;18.604;2023-07-08T00:20:43;5.78;;;3.38;;
54539;SDS011;40438;52.992;18.604;2023-07-08T00:23:12;7.30;;;3.22;;
54539;SDS011;40438;52.992;18.604;2023-07-08T00:25:38;5.65;;;3.33;;
54539;SDS011;40438;52.992;18.604;2023-07-08T00:28:04;4.97;;;3.30;;
54539;SDS011;40438;52.992;18.604;2023-07-08T00:30:34;5.32;;;3.60;;
54539;SDS011;40438;52.992;18.604;2023-07-08T00:33:00;6.95;;;3.80;;
54539;SDS011;40438;52.992;18.604;2023-07-08T00:35:26;6.93;;;3.80;;
54539;SDS011;40438;52.992;18.604;2023-07-08T00:37:56;6.63;;;3.90;;
54539;SDS011;40438;52.992;18.604;2023-07-08T00:40:23;10.45;;;4.40;;
54539;SDS011;40438;52.992;18.604;2023-07-08T00:42:49;6.15;;;3.65;;
54539;SDS011;40438;52.992;18.604;2023-07-08T00:45:20;5.97;;;4.10;;
54539;SDS011;40438;52.992;18.604;2023-07-08T00:48:03;7.10;;;4.07;;
54539;SDS011;40438;52.992;18.604;2023-07-08T00:50:34;7.65;;;3.92;;
54539;SDS011;40438;52.992;18.604;2023-07-08T00:55:49;10.45;;;3.67;;
54539;SDS011;40438;52.992;18.604;2023-07-08T00:58:16;6.60;;;3.75;;
54539;SDS011;40438;52.992;18.604;2023-07-08T01:00:44;7.93;;;4.38;;
54539;SDS011;40438;52.992;18.604;2023-07-08T01:03:10;7.25;;;4.30;;
54539;SDS011;40438;52.992;18.604;2023-07-08T01:05:36;7.72;;;4.13;;
54539;SDS011;40438;52.992;18.604;2023-07-08T01:08:03;9.40;;;4.10;;
54539;SDS011;40438;52.992;18.604;2023-07-08T01:10:31;5.82;;;4.05;;
54539;SDS011;40438;52.992;18.604;2023-07-08T01:13:04;5.77;;;4.37;;
54539;SDS011;40438;52.992;18.604;2023-07-08T01:15:34;6.13;;;4.38;;
54539;SDS011;40438;52.992;18.604;2023-07-08T01:18:04;5.88;;;4.20;;
54539;SDS011;40438;52.992;18.604;2023-07-08T01:20:30;6.25;;;4.15;;
54539;SDS011;40438;52.992;18.604;2023-07-08T01:22:57;6.75;;;4.15;;
54539;SDS011;40438;52.992;18.604;2023-07-08T01:25:23;11.02;;;4.28;;
54539;SDS011;40438;52.992;18.604;2023-07-08T01:27:52;7.13;;;4.25;;
54539;SDS011;40438;52.992;18.604;2023-07-08T01:30:21;7.38;;;4.78;;
54539;SDS011;40438;52.992;18.604;2023-07-08T01:32:48;5.82;;;4.30;;
54539;SDS011;40438;52.992;18.604;2023-07-08T01:35:16;6.88;;;4.35;;
54539;SDS011;40438;52.992;18.604;2023-07-08T01:37:43;9.15;;;4.88;;
54539;SDS011;40438;52.992;18.604;2023-07-08T01:40:28;7.55;;;4.55;;
54539;SDS011;40438;52.992;18.604;2023-07-08T01:42:56;6.88;;;4.07;;
54539;SDS011;40438;52.992;18.604;2023-07-08T01:45:23;10.20;;;4.25;;
54539;SDS011;40438;52.992;18.604;2023-07-08T01:47:51;6.70;;;3.85;;
54539;SDS011;40438;52.992;18.604;2023-07-08T01:50:20;5.55;;;4.43;;
54539;SDS011;40438;52.992;18.604;2023-07-08T01:52:47;7.22;;;4.18;;
54539;SDS011;40438;52.992;18.604;2023-07-08T01:55:15;6.22;;;4.43;;
54539;SDS011;40438;52.992;18.604;2023-07-08T01:57:42;10.55;;;4.47;;
54539;SDS011;40438;52.992;18.604;2023-07-08T02:00:08;7.28;;;4.78;;
54539;SDS011;40438;52.992;18.604;2023-07-08T02:02:38;7.55;;;4.30;;
54539;SDS011;40438;52.992;18.604;2023-07-08T02:05:05;5.38;;;4.13;;
54539;SDS011;40438;52.992;18.604;2023-07-08T02:07:32;7.25;;;4.47;;
54539;SDS011;40438;52.992;18.604;2023-07-08T02:09:58;6.68;;;4.38;;
54539;SDS011;40438;52.992;18.604;2023-07-08T02:12:24;8.48;;;4.63;;
54539;SDS011;40438;52.992;18.604;2023-07-08T02:14:51;8.52;;;4.57;;
54539;SDS011;40438;52.992;18.604;2023-07-08T02:17:17;6.75;;;4.22;;
54539;SDS011;40438;52.992;18.604;2023-07-08T02:19:43;6.15;;;4.53;;
54539;SDS011;40438;52.992;18.604;2023-07-08T02:22:09;9.40;;;4.55;;
54539;SDS011;40438;52.992;18.604;2023-07-08T02:24:35;7.15;;;4.72;;
54539;SDS011;40438;52.992;18.604;2023-07-08T02:27:00;7.93;;;4.93;;
54539;SDS011;40438;52.992;18.604;2023-07-08T02:29:26;7.88;;;5.72;;
54539;SDS011;40438;52.992;18.604;2023-07-08T02:31:54;9.63;;;4.95;;
54539;SDS011;40438;52.992;18.604;2023-07-08T02:34:20;13.75;;;6.97;;
54539;SDS011;40438;52.992;18.604;2023-07-08T02:36:46;23.15;;;11.15;;
54539;SDS011;40438;52.992;18.604;2023-07-08T02:39:12;26.40;;;14.57;;
54539;SDS011;40438;52.992;18.604;2023-07-08T02:41:39;30.17;;;15.52;;
54539;SDS011;40438;52.992;18.604;2023-07-08T02:44:04;23.20;;;11.98;;
54539;SDS011;40438;52.992;18.604;2023-07-08T02:46:30;21.95;;;11.50;;
54539;SDS011;40438;52.992;18.604;2023-07-08T02:48:58;24.45;;;13.13;;
54539;SDS011;40438;52.992;18.604;2023-07-08T02:51:23;38.05;;;17.88;;
54539;SDS011;40438;52.992;18.604;2023-07-08T02:53:49;41.35;;;21.95;;
54539;SDS011;40438;52.992;18.604;2023-07-08T02:56:15;51.70;;;24.30;;
54539;SDS011;40438;52.992;18.604;2023-07-08T02:58:41;41.03;;;24.95;;
54539;SDS011;40438;52.992;18.604;2023-07-08T03:01:07;49.22;;;27.67;;
54539;SDS011;40438;52.992;18.604;2023-07-08T03:03:34;46.60;;;26.80;;
54539;SDS011;40438;52.992;18.604;2023-07-08T03:06:01;49.17;;;28.00;;
54539;SDS011;40438;52.992;18.604;2023-07-08T03:08:28;51.30;;;29.65;;
54539;SDS011;40438;52.992;18.604;2023-07-08T03:10:55;57.72;;;33.17;;
54539;SDS011;40438;52.992;18.604;2023-07-08T03:13:22;80.15;;;42.17;;
54539;SDS011;40438;52.992;18.604;2023-07-08T03:15:48;68.57;;;38.42;;
54539;SDS011;40438;52.992;18.604;2023-07-08T03:18:14;63.53;;;34.97;;
54539;SDS011;40438;52.992;18.604;2023-07-08T03:20:40;43.83;;;24.85;;
54539;SDS011;40438;52.992;18.604;2023-07-08T03:23:07;34.95;;;18.30;;
54539;SDS011;40438;52.992;18.604;2023-07-08T03:25:35;16.73;;;11.70;;
54539;SDS011;40438;52.992;18.604;2023-07-08T03:28:01;15.43;;;10.10;;
54539;SDS011;40438;52.992;18.604;2023-07-08T03:30:27;14.85;;;9.05;;
54539;SDS011;40438;52.992;18.604;2023-07-08T03:32:53;13.05;;;8.13;;
54539;SDS011;40438;52.992;18.604;2023-07-08T03:35:19;13.13;;;8.57;;
54539;SDS011;40438;52.992;18.604;2023-07-08T03:37:44;16.02;;;8.52;;
54539;SDS011;40438;52.992;18.604;2023-07-08T03:40:12;14.80;;;8.00;;
54539;SDS011;40438;52.992;18.604;2023-07-08T03:42:39;11.07;;;7.57;;
54539;SDS011;40438;52.992;18.604;2023-07-08T03:45:05;9.20;;;6.88;;
54539;SDS011;40438;52.992;18.604;2023-07-08T03:47:32;11.82;;;7.78;;
54539;SDS011;40438;52.992;18.604;2023-07-08T03:49:59;13.57;;;7.10;;
54539;SDS011;40438;52.992;18.604;2023-07-08T03:52:25;13.15;;;7.22;;
54539;SDS011;40438;52.992;18.604;2023-07-08T03:54:51;12.75;;;7.70;;
54539;SDS011;40438;52.992;18.604;2023-07-08T03:57:18;12.27;;;7.38;;
54539;SDS011;40438;52.992;18.604;2023-07-08T03:59:46;14.10;;;7.25;;
54539;SDS011;40438;52.992;18.604;2023-07-08T04:02:12;8.77;;;5.93;;
54539;SDS011;40438;52.992;18.604;2023-07-08T04:04:38;14.60;;;6.15;;
54539;SDS011;40438;52.992;18.604;2023-07-08T04:07:04;8.93;;;6.22;;
54539;SDS011;40438;52.992;18.604;2023-07-08T04:09:30;10.93;;;6.80;;
54539;SDS011;40438;52.992;18.604;2023-07-08T04:11:56;8.27;;;5.68;;
54539;SDS011;40438;52.992;18.604;2023-07-08T04:14:23;8.55;;;6.05;;
54539;SDS011;40438;52.992;18.604;2023-07-08T04:16:50;7.85;;;5.75;;
54539;SDS011;40438;52.992;18.604;2023-07-08T04:19:17;8.93;;;6.53;;
54539;SDS011;40438;52.992;18.604;2023-07-08T04:21:43;11.30;;;6.40;;
54539;SDS011;40438;52.992;18.604;2023-07-08T04:24:10;7.68;;;5.22;;
54539;SDS011;40438;52.992;18.604;2023-07-08T04:26:36;10.40;;;6.35;;
54539;SDS011;40438;52.992;18.604;2023-07-08T04:29:02;11.88;;;6.40;;
54539;SDS011;40438;52.992;18.604;2023-07-08T04:31:30;9.15;;;5.72;;
54539;SDS011;40438;52.992;18.604;2023-07-08T04:33:56;12.82;;;6.78;;
54539;SDS011;40438;52.992;18.604;2023-07-08T04:36:21;10.32;;;6.38;;
54539;SDS011;40438;52.992;18.604;2023-07-08T04:38:47;8.18;;;6.05;;
54539;SDS011;40438;52.992;18.604;2023-07-08T04:41:13;13.25;;;6.45;;
54539;SDS011;40438;52.992;18.604;2023-07-08T04:43:39;9.45;;;6.00;;
54539;SDS011;40438;52.992;18.604;2023-07-08T04:46:05;11.27;;;6.88;;
54539;SDS011;40438;52.992;18.604;2023-07-08T04:48:43;10.82;;;6.10;;
54539;SDS011;40438;52.992;18.604;2023-07-08T04:51:09;8.98;;;6.68;;
54539;SDS011;40438;52.992;18.604;2023-07-08T04:53:35;6.72;;;5.95;;
54539;SDS011;40438;52.992;18.604;2023-07-08T04:56:01;9.27;;;6.20;;
54539;SDS011;40438;52.992;18.604;2023-07-08T04:58:27;11.52;;;6.65;;
54539;SDS011;40438;52.992;18.604;2023-07-08T05:00:52;8.18;;;6.35;;
54539;SDS011;40438;52.992;18.604;2023-07-08T05:03:18;12.10;;;6.35;;
54539;SDS011;40438;52.992;18.604;2023-07-08T05:05:45;12.65;;;7.10;;
54539;SDS011;40438;52.992;18.604;2023-07-08T05:08:11;8.32;;;6.70;;
54539;SDS011;40438;52.992;18.604;2023-07-08T05:10:38;8.60;;;6.05;;
54539;SDS011;40438;52.992;18.604;2023-07-08T05:13:04;8.27;;;6.50;;
54539;SDS011;40438;52.992;18.604;2023-07-08T05:15:30;7.70;;;6.25;;
54539;SDS011;40438;52.992;18.604;2023-07-08T05:17:56;12.57;;;6.70;;
54539;SDS011;40438;52.992;18.604;2023-07-08T05:20:22;8.45;;;6.53;;
54539;SDS011;40438;52.992;18.604;2023-07-08T05:22:49;8.02;;;5.80;;
54539;SDS011;40438;52.992;18.604;2023-07-08T05:25:15;9.07;;;6.25;;
54539;SDS011;40438;52.992;18.604;2023-07-08T05:27:43;9.02;;;5.70;;
54539;SDS011;40438;52.992;18.604;2023-07-08T05:30:11;9.07;;;6.10;;
54539;SDS011;40438;52.992;18.604;2023-07-08T05:32:39;7.38;;;5.85;;
54539;SDS011;40438;52.992;18.604;2023-07-08T05:35:05;9.88;;;6.40;;
54539;SDS011;40438;52.992;18.604;2023-07-08T05:37:31;9.07;;;6.13;;
54539;SDS011;40438;52.992;18.604;2023-07-08T05:39:58;7.57;;;5.97;;
54539;SDS011;40438;52.992;18.604;2023-07-08T05:42:24;10.80;;;5.80;;
54539;SDS011;40438;52.992;18.604;2023-07-08T05:44:49;8.57;;;5.15;;
54539;SDS011;40438;52.992;18.604;2023-07-08T05:47:15;7.18;;;5.60;;
54539;SDS011;40438;52.992;18.604;2023-07-08T05:49:41;7.53;;;5.65;;
54539;SDS011;40438;52.992;18.604;2023-07-08T05:52:07;7.55;;;5.20;;
54539;SDS011;40438;52.992;18.604;2023-07-08T05:54:33;6.45;;;5.15;;
54539;SDS011;40438;52.992;18.604;2023-07-08T05:57:00;7.93;;;5.25;;
54539;SDS011;40438;52.992;18.604;2023-07-08T05:59:26;8.82;;;5.10;;
54539;SDS011;40438;52.992;18.604;2023-07-08T06:01:52;8.20;;;5.20;;
54539;SDS011;40438;52.992;18.604;2023-07-08T06:04:18;5.45;;;4.65;;
54539;SDS011;40438;52.992;18.604;2023-07-08T06:06:43;6.38;;;4.55;;
54539;SDS011;40438;52.992;18.604;2023-07-08T06:09:09;7.70;;;4.28;;
54539;SDS011;40438;52.992;18.604;2023-07-08T06:11:35;5.70;;;4.32;;
54539;SDS011;40438;52.992;18.604;2023-07-08T06:14:02;5.18;;;4.35;;
54539;SDS011;40438;52.992;18.604;2023-07-08T06:16:28;11.15;;;4.55;;
54539;SDS011;40438;52.992;18.604;2023-07-08T06:18:55;13.52;;;5.82;;
54539;SDS011;40438;52.992;18.604;2023-07-08T06:21:21;5.00;;;3.70;;
54539;SDS011;40438;52.992;18.604;2023-07-08T06:23:47;10.02;;;4.82;;
54539;SDS011;40438;52.992;18.604;2023-07-08T06:26:13;6.90;;;4.18;;
54539;SDS011;40438;52.992;18.604;2023-07-08T06:28:38;5.43;;;4.50;;
54539;SDS011;40438;52.992;18.604;2023-07-08T06:31:06;4.82;;;4.10;;
54539;SDS011;40438;52.992;18.604;2023-07-08T06:33:31;6.57;;;3.97;;
54539;SDS011;40438;52.992;18.604;2023-07-08T06:35:57;5.95;;;3.85;;
54539;SDS011;40438;52.992;18.604;2023-07-08T06:38:23;7.18;;;3.83;;
54539;SDS011;40438;52.992;18.604;2023-07-08T06:40:49;4.97;;;3.67;;
54539;SDS011;40438;52.992;18.604;2023-07-08T06:43:15;4.97;;;4.00;;
54539;SDS011;40438;52.992;18.604;2023-07-08T06:46:04;6.22;;;3.88;;
54539;SDS011;40438;52.992;18.604;2023-07-08T06:48:31;5.82;;;4.43;;
54539;SDS011;40438;52.992;18.604;2023-07-08T06:50:57;7.72;;;4.07;;
54539;SDS011;40438;52.992;18.604;2023-07-08T06:53:23;8.48;;;4.25;;
54539;SDS011;40438;52.992;18.604;2023-07-08T06:55:49;6.57;;;4.15;;
54539;SDS011;40438;52.992;18.604;2023-07-08T06:58:15;5.80;;;3.58;;
54539;SDS011;40438;52.992;18.604;2023-07-08T07:00:41;4.07;;;3.30;;
54539;SDS011;40438;52.992;18.604;2023-07-08T07:03:09;5.50;;;3.90;;
54539;SDS011;40438;52.992;18.604;2023-07-08T07:05:35;6.65;;;3.83;;
54539;SDS011;40438;52.992;18.604;2023-07-08T07:08:00;4.70;;;3.70;;
54539;SDS011;40438;52.992;18.604;2023-07-08T07:10:26;8.05;;;3.70;;
54539;SDS011;40438;52.992;18.604;2023-07-08T07:12:52;6.72;;;3.50;;
54539;SDS011;40438;52.992;18.604;2023-07-08T07:15:18;4.80;;;4.10;;
54539;SDS011;40438;52.992;18.604;2023-07-08T07:17:44;11.40;;;4.32;;
54539;SDS011;40438;52.992;18.604;2023-07-08T07:20:11;6.30;;;3.95;;
54539;SDS011;40438;52.992;18.604;2023-07-08T07:22:38;6.18;;;3.75;;
54539;SDS011;40438;52.992;18.604;2023-07-08T07:25:04;8.52;;;3.92;;
54539;SDS011;40438;52.992;18.604;2023-07-08T07:27:30;5.65;;;3.30;;
54539;SDS011;40438;52.992;18.604;2023-07-08T07:29:55;6.70;;;3.80;;
54539;SDS011;40438;52.992;18.604;2023-07-08T07:32:22;6.93;;;3.35;;
54539;SDS011;40438;52.992;18.604;2023-07-08T07:34:48;6.40;;;3.50;;
54539;SDS011;40438;52.992;18.604;2023-07-08T07:37:17;8.00;;;3.05;;
54539;SDS011;40438;52.992;18.604;2023-07-08T07:39:44;5.70;;;3.63;;
54539;SDS011;40438;52.992;18.604;2023-07-08T07:42:10;4.38;;;3.63;;
54539;SDS011;40438;52.992;18.604;2023-07-08T07:44:36;7.85;;;3.58;;
54539;SDS011;40438;52.992;18.604;2023-07-08T07:47:02;7.30;;;3.75;;
54539;SDS011;40438;52.992;18.604;2023-07-08T07:49:29;7.03;;;3.63;;
54539;SDS011;40438;52.992;18.604;2023-07-08T07:51:54;5.15;;;3.40;;
54539;SDS011;40438;52.992;18.604;2023-07-08T07:54:22;7.60;;;3.97;;
54539;SDS011;40438;52.992;18.604;2023-07-08T07:56:48;9.10;;;3.47;;
54539;SDS011;40438;52.992;18.604;2023-07-08T07:59:14;7.78;;;3.40;;
54539;SDS011;40438;52.992;18.604;2023-07-08T08:01:40;6.50;;;3.70;;
54539;SDS011;40438;52.992;18.604;2023-07-08T08:04:06;5.57;;;2.80;;
54539;SDS011;40438;52.992;18.604;2023-07-08T08:06:32;7.13;;;3.30;;
54539;SDS011;40438;52.992;18.604;2023-07-08T08:08:57;2.55;;;2.00;;
54539;SDS011;40438;52.992;18.604;2023-07-08T08:11:24;3.83;;;2.38;;
54539;SDS011;40438;52.992;18.604;2023-07-08T08:13:50;3.63;;;2.20;;
54539;SDS011;40438;52.992;18.604;2023-07-08T08:16:16;4.45;;;2.20;;
54539;SDS011;40438;52.992;18.604;2023-07-08T08:18:42;4.07;;;2.38;;
54539;SDS011;40438;52.992;18.604;2023-07-08T08:21:08;4.78;;;2.20;;
54539;SDS011;40438;52.992;18.604;2023-07-08T08:23:34;2.97;;;2.28;;
54539;SDS011;40438;52.992;18.604;2023-07-08T08:25:59;5.88;;;2.70;;
54539;SDS011;40438;52.992;18.604;2023-07-08T08:28:26;5.82;;;2.38;;
54539;SDS011;40438;52.992;18.604;2023-07-08T08:30:52;4.63;;;2.03;;
54539;SDS011;40438;52.992;18.604;2023-07-08T08:33:18;4.60;;;2.40;;
54539;SDS011;40438;52.992;18.604;2023-07-08T08:35:45;4.57;;;2.70;;
54539;SDS011;40438;52.992;18.604;2023-07-08T08:38:11;3.55;;;2.22;;
54539;SDS011;40438;52.992;18.604;2023-07-08T08:40:37;7.18;;;2.95;;
54539;SDS011;40438;52.992;18.604;2023-07-08T08:43:05;8.32;;;3.33;;
54539;SDS011;40438;52.992;18.604;2023-07-08T08:45:39;12.05;;;4.70;;
54539;SDS011;40438;52.992;18.604;2023-07-08T08:48:11;5.30;;;3.10;;
54539;SDS011;40438;52.992;18.604;2023-07-08T08:50:41;10.25;;;4.25;;
54539;SDS011;40438;52.992;18.604;2023-07-08T08:53:10;4.18;;;2.55;;
54539;SDS011;40438;52.992;18.604;2023-07-08T08:55:39;6.47;;;3.40;;
54539;SDS011;40438;52.992;18.604;2023-07-08T08:58:09;6.20;;;2.88;;
54539;SDS011;40438;52.992;18.604;2023-07-08T09:00:46;7.80;;;3.22;;
54539;SDS011;40438;52.992;18.604;2023-07-08T09:03:27;4.88;;;3.10;;
54539;SDS011;40438;52.992;18.604;2023-07-08T09:05:59;3.72;;;3.00;;
54539;SDS011;40438;52.992;18.604;2023-07-08T09:08:27;4.43;;;3.47;;
54539;SDS011;40438;52.992;18.604;2023-07-08T09:10:57;2.95;;;2.40;;
54539;SDS011;40438;52.992;18.604;2023-07-08T09:13:28;3.80;;;2.20;;
54539;SDS011;40438;52.992;18.604;2023-07-08T09:15:59;2.90;;;2.10;;
54539;SDS011;40438;52.992;18.604;2023-07-08T09:18:32;3.45;;;2.10;;
54539;SDS011;40438;52.992;18.604;2023-07-08T09:21:01;2.55;;;2.35;;
54539;SDS011;40438;52.992;18.604;2023-07-08T09:23:38;4.85;;;2.80;;
54539;SDS011;40438;52.992;18.604;2023-07-08T09:26:07;3.50;;;2.65;;
54539;SDS011;40438;52.992;18.604;2023-07-08T09:28:39;3.67;;;2.00;;
54539;SDS011;40438;52.992;18.604;2023-07-08T09:31:09;3.72;;;2.55;;
54539;SDS011;40438;52.992;18.604;2023-07-08T09:33:44;5.28;;;2.30;;
54539;SDS011;40438;52.992;18.604;2023-07-08T09:36:16;5.43;;;2.20;;
54539;SDS011;40438;52.992;18.604;2023-07-08T09:38:46;5.00;;;2.40;;
54539;SDS011;40438;52.992;18.604;2023-07-08T09:41:13;5.88;;;2.60;;
54539;SDS011;40438;52.992;18.604;2023-07-08T09:43:39;3.78;;;2.10;;
54539;SDS011;40438;52.992;18.604;2023-07-08T09:46:07;2.60;;;2.00;;
54539;SDS011;40438;52.992;18.604;2023-07-08T09:48:37;4.95;;;2.17;;
54539;SDS011;40438;52.992;18.604;2023-07-08T09:51:04;4.00;;;2.40;;
54539;SDS011;40438;52.992;18.604;2023-07-08T09:53:30;5.25;;;2.30;;
54539;SDS011;40438;52.992;18.604;2023-07-08T09:55:56;6.70;;;2.33;;
54539;SDS011;40438;52.992;18.604;2023-07-08T09:58:25;3.92;;;2.42;;
54539;SDS011;40438;52.992;18.604;2023-07-08T10:00:55;2.58;;;2.30;;
54539;SDS011;40438;52.992;18.604;2023-07-08T10:03:25;4.35;;;2.15;;
54539;SDS011;40438;52.992;18.604;2023-07-08T10:05:54;4.72;;;2.40;;
54539;SDS011;40438;52.992;18.604;2023-07-08T10:08:22;6.22;;;2.35;;
54539;SDS011;40438;52.992;18.604;2023-07-08T10:10:52;3.20;;;2.05;;
54539;SDS011;40438;52.992;18.604;2023-07-08T10:13:24;3.88;;;2.50;;
54539;SDS011;40438;52.992;18.604;2023-07-08T10:16:00;2.30;;;2.10;;
54539;SDS011;40438;52.992;18.604;2023-07-08T10:18:40;2.60;;;2.20;;
54539;SDS011;40438;52.992;18.604;2023-07-08T10:21:08;2.97;;;2.08;;
54539;SDS011;40438;52.992;18.604;2023-07-08T10:23:41;9.82;;;2.20;;
54539;SDS011;40438;52.992;18.604;2023-07-08T10:26:13;6.50;;;2.67;;
54539;SDS011;40438;52.992;18.604;2023-07-08T10:28:48;6.50;;;2.50;;
54539;SDS011;40438;52.992;18.604;2023-07-08T10:31:25;2.70;;;2.08;;
54539;SDS011;40438;52.992;18.604;2023-07-08T10:34:01;4.55;;;1.95;;
54539;SDS011;40438;52.992;18.604;2023-07-08T10:36:42;3.33;;;2.20;;
54539;SDS011;40438;52.992;18.604;2023-07-08T10:39:20;3.85;;;2.50;;
54539;SDS011;40438;52.992;18.604;2023-07-08T10:42:02;3.03;;;1.90;;
54539;SDS011;40438;52.992;18.604;2023-07-08T10:44:37;2.15;;;1.90;;
54539;SDS011;40438;52.992;18.604;2023-07-08T10:47:23;2.60;;;2.10;;
54539;SDS011;40438;52.992;18.604;2023-07-08T10:50:07;2.75;;;2.15;;
54539;SDS011;40438;52.992;18.604;2023-07-08T10:52:46;3.22;;;2.20;;
54539;SDS011;40438;52.992;18.604;2023-07-08T10:55:26;2.55;;;1.95;;
54539;SDS011;40438;52.992;18.604;2023-07-08T11:01:06;3.28;;;2.42;;
54539;SDS011;40438;52.992;18.604;2023-07-08T11:06:48;6.80;;;2.38;;
54539;SDS011;40438;52.992;18.604;2023-07-08T11:09:18;5.38;;;2.08;;
54539;SDS011;40438;52.992;18.604;2023-07-08T11:11:51;3.75;;;2.05;;
54539;SDS011;40438;52.992;18.604;2023-07-08T11:14:22;3.10;;;2.03;;
54539;SDS011;40438;52.992;18.604;2023-07-08T11:16:51;3.20;;;2.20;;
54539;SDS011;40438;52.992;18.604;2023-07-08T11:19:24;4.07;;;2.20;;
54539;SDS011;40438;52.992;18.604;2023-07-08T11:21:55;3.05;;;2.13;;
54539;SDS011;40438;52.992;18.604;2023-07-08T11:24:24;2.38;;;2.17;;
54539;SDS011;40438;52.992;18.604;2023-07-08T11:26:56;5.90;;;2.10;;
54539;SDS011;40438;52.992;18.604;2023-07-08T11:29:26;2.65;;;1.92;;
54539;SDS011;40438;52.992;18.604;2023-07-08T11:32:00;2.00;;;1.80;;
54539;SDS011;40438;52.992;18.604;2023-07-08T11:34:28;4.25;;;2.22;;
54539;SDS011;40438;52.992;18.604;2023-07-08T11:36:55;3.17;;;1.98;;
54539;SDS011;40438;52.992;18.604;2023-07-08T11:39:27;3.33;;;1.88;;
54539;SDS011;40438;52.992;18.604;2023-07-08T11:42:03;3.03;;;2.20;;
54539;SDS011;40438;52.992;18.604;2023-07-08T11:44:30;2.65;;;1.88;;
54539;SDS011;40438;52.992;18.604;2023-07-08T11:46:59;5.45;;;2.47;;
54539;SDS011;40438;52.992;18.604;2023-07-08T11:49:25;2.85;;;2.08;;
54539;SDS011;40438;52.992;18.604;2023-07-08T11:51:51;2.65;;;2.30;;
54539;SDS011;40438;52.992;18.604;2023-07-08T11:54:26;4.32;;;2.30;;
54539;SDS011;40438;52.992;18.604;2023-07-08T11:56:57;6.57;;;3.08;;
54539;SDS011;40438;52.992;18.604;2023-07-08T11:59:24;3.53;;;2.00;;
54539;SDS011;40438;52.992;18.604;2023-07-08T12:01:54;2.63;;;2.13;;
54539;SDS011;40438;52.992;18.604;2023-07-08T12:04:29;2.88;;;2.30;;
54539;SDS011;40438;52.992;18.604;2023-07-08T12:07:03;4.30;;;2.30;;
54539;SDS011;40438;52.992;18.604;2023-07-08T12:09:39;2.90;;;2.35;;
54539;SDS011;40438;52.992;18.604;2023-07-08T12:12:14;5.78;;;2.75;;
54539;SDS011;40438;52.992;18.604;2023-07-08T12:14:45;3.92;;;2.58;;
54539;SDS011;40438;52.992;18.604;2023-07-08T12:17:11;4.78;;;2.83;;
54539;SDS011;40438;52.992;18.604;2023-07-08T12:19:38;6.00;;;3.22;;
54539;SDS011;40438;52.992;18.604;2023-07-08T12:22:07;3.65;;;2.53;;
54539;SDS011;40438;52.992;18.604;2023-07-08T12:24:33;5.55;;;2.63;;
54539;SDS011;40438;52.992;18.604;2023-07-08T12:27:00;3.67;;;2.55;;
54539;SDS011;40438;52.992;18.604;2023-07-08T12:29:27;3.55;;;2.22;;
54539;SDS011;40438;52.992;18.604;2023-07-08T12:31:53;3.65;;;2.35;;
54539;SDS011;40438;52.992;18.604;2023-07-08T12:34:19;3.40;;;2.45;;
54539;SDS011;40438;52.992;18.604;2023-07-08T12:36:48;5.65;;;2.13;;
54539;SDS011;40438;52.992;18.604;2023-07-08T12:39:15;3.90;;;2.33;;
54539;SDS011;40438;52.992;18.604;2023-07-08T12:41:42;7.18;;;2.58;;
54539;SDS011;40438;52.992;18.604;2023-07-08T12:44:13;3.03;;;2.30;;
54539;SDS011;40438;52.992;18.604;2023-07-08T12:46:41;5.28;;;1.95;;
54539;SDS011;40438;52.992;18.604;2023-07-08T12:49:07;3.05;;;2.10;;
54539;SDS011;40438;52.992;18.604;2023-07-08T12:51:34;3.53;;;2.40;;
54539;SDS011;40438;52.992;18.604;2023-07-08T12:53:59;2.55;;;2.35;;
54539;SDS011;40438;52.992;18.604;2023-07-08T12:56:25;3.65;;;2.60;;
54539;SDS011;40438;52.992;18.604;2023-07-08T12:58:52;3.20;;;2.28;;
54539;SDS011;40438;52.992;18.604;2023-07-08T13:01:22;3.50;;;2.42;;
54539;SDS011;40438;52.992;18.604;2023-07-08T13:03:54;4.78;;;2.75;;
54539;SDS011;40438;52.992;18.604;2023-07-08T13:06:22;3.40;;;2.17;;
54539;SDS011;40438;52.992;18.604;2023-07-08T13:08:53;3.30;;;2.53;;
54539;SDS011;40438;52.992;18.604;2023-07-08T13:11:20;2.88;;;2.00;;
54539;SDS011;40438;52.992;18.604;2023-07-08T13:13:49;5.80;;;1.80;;
54539;SDS011;40438;52.992;18.604;2023-07-08T13:16:18;8.13;;;2.33;;
54539;SDS011;40438;52.992;18.604;2023-07-08T13:18:45;4.75;;;2.40;;
54539;SDS011;40438;52.992;18.604;2023-07-08T13:21:13;3.47;;;2.28;;
54539;SDS011;40438;52.992;18.604;2023-07-08T13:23:40;2.90;;;2.30;;
54539;SDS011;40438;52.992;18.604;2023-07-08T13:26:12;5.10;;;2.47;;
54539;SDS011;40438;52.992;18.604;2023-07-08T13:28:39;8.75;;;4.22;;
54539;SDS011;40438;52.992;18.604;2023-07-08T13:31:12;3.20;;;2.25;;
54539;SDS011;40438;52.992;18.604;2023-07-08T13:33:54;6.50;;;2.33;;
54539;SDS011;40438;52.992;18.604;2023-07-08T13:36:22;6.75;;;2.95;;
54539;SDS011;40438;52.992;18.604;2023-07-08T13:38:49;16.13;;;6.20;;
54539;SDS011;40438;52.992;18.604;2023-07-08T13:41:18;7.15;;;4.47;;
54539;SDS011;40438;52.992;18.604;2023-07-08T13:43:46;9.82;;;5.68;;
54539;SDS011;40438;52.992;18.604;2023-07-08T13:46:28;11.45;;;5.07;;
54539;SDS011;40438;52.992;18.604;2023-07-08T13:48:58;8.23;;;5.93;;
54539;SDS011;40438;52.992;18.604;2023-07-08T13:51:28;11.57;;;6.05;;
54539;SDS011;40438;52.992;18.604;2023-07-08T13:53:58;2.97;;;2.33;;
54539;SDS011;40438;52.992;18.604;2023-07-08T13:56:26;6.72;;;3.60;;
54539;SDS011;40438;52.992;18.604;2023-07-08T13:59:00;3.97;;;2.38;;
54539;SDS011;40438;52.992;18.604;2023-07-08T14:01:28;6.93;;;3.53;;
54539;SDS011;40438;52.992;18.604;2023-07-08T14:03:59;4.28;;;2.75;;
54539;SDS011;40438;52.992;18.604;2023-07-08T14:06:32;4.32;;;2.38;;
54539;SDS011;40438;52.992;18.604;2023-07-08T14:09:03;3.75;;;2.63;;
54539;SDS011;40438;52.992;18.604;2023-07-08T14:11:35;5.32;;;3.40;;
54539;SDS011;40438;52.992;18.604;2023-07-08T14:14:01;2.38;;;2.17;;
54539;SDS011;40438;52.992;18.604;2023-07-08T14:16:27;4.43;;;2.85;;
54539;SDS011;40438;52.992;18.604;2023-07-08T14:19:05;2.58;;;2.05;;
54539;SDS011;40438;52.992;18.604;2023-07-08T14:21:35;3.50;;;2.20;;
54539;SDS011;40438;52.992;18.604;2023-07-08T14:24:08;5.88;;;2.78;;
54539;SDS011;40438;52.992;18.604;2023-07-08T14:26:40;5.80;;;2.55;;
54539;SDS011;40438;52.992;18.604;2023-07-08T14:29:07;4.80;;;3.50;;
54539;SDS011;40438;52.992;18.604;2023-07-08T14:31:33;7.82;;;3.10;;
54539;SDS011;40438;52.992;18.604;2023-07-08T14:34:00;8.13;;;3.55;;
54539;SDS011;40438;52.992;18.604;2023-07-08T14:36:31;7.70;;;3.10;;
54539;SDS011;40438;52.992;18.604;2023-07-08T14:38:57;3.67;;;2.50;;
54539;SDS011;40438;52.992;18.604;2023-07-08T14:41:22;5.05;;;3.63;;
54539;SDS011;40438;52.992;18.604;2023-07-08T14:43:48;6.55;;;3.10;;
54539;SDS011;40438;52.992;18.604;2023-07-08T14:46:14;3.13;;;2.60;;